Time;durP1;ratioP1;P1;durP2;ratioP2;P2;SDS_P1;SDS_P2;PMS_P1;PMS_P2;Temp;Humidity;BMP_temperature;BMP_pressure;BME280_temperature;BME280_humidity;BME280_pressure;Samples;Min_cycle;Max_cycle;Signal;HPM_P1;HPM_P2
2023/06/29 00:02:10;;;;;;;5.78;3.28;;;;;14.30;94343.00;;;;7392007;19;20140;-80
2023/06/29 00:04:38;;;;;;;8.00;3.58;;;;;14.30;94341.00;;;;7391532;19;20137;-80
2023/06/29 00:07:12;;;;;;;6.22;3.10;;;;;14.30;94341.00;;;;7394344;19;20216;-80
2023/06/29 00:09:47;;;;;;;6.22;3.22;;;;;14.30;94339.00;;;;7393227;19;20519;-79
2023/06/29 00:12:21;;;;;;;5.70;3.17;;;;;14.30;94345.00;;;;7394365;19;20148;-77
2023/06/29 00:14:49;;;;;;;5.28;3.67;;;;;14.20;94344.00;;;;7394023;19;20153;-80
2023/06/29 00:17:23;;;;;;;7.22;3.00;;;;;14.10;94335.00;;;;7394721;19;20140;-79
2023/06/29 00:20:00;;;;;;;5.13;3.15;;;;;14.20;94331.00;;;;7393088;19;20159;-78
2023/06/29 00:22:34;;;;;;;7.28;3.63;;;;;14.20;94326.00;;;;7394820;19;20125;-79
2023/06/29 00:25:11;;;;;;;6.05;3.10;;;;;14.20;94333.00;;;;7393605;19;20155;-79
2023/06/29 00:27:45;;;;;;;6.63;2.97;;;;;14.10;94326.00;;;;7394009;19;20592;-79
2023/06/29 00:30:20;;;;;;;5.22;3.20;;;;;14.10;94323.00;;;;7393471;19;20488;-79
2023/06/29 00:32:54;;;;;;;6.13;3.10;;;;;14.10;94325.00;;;;7394024;19;20141;-79
2023/06/29 00:35:24;;;;;;;7.30;3.40;;;;;14.10;94319.00;;;;7392533;19;20675;-79
2023/06/29 00:38:00;;;;;;;5.80;3.20;;;;;14.10;94318.00;;;;7392904;19;20140;-78
2023/06/29 00:40:34;;;;;;;8.57;3.30;;;;;14.00;94316.00;;;;7393194;19;20504;-80
2023/06/29 00:43:08;;;;;;;5.10;2.72;;;;;14.00;94315.00;;;;7391742;19;20124;-79
2023/06/29 00:45:43;;;;;;;5.28;2.92;;;;;14.00;94310.00;;;;7391746;19;20141;-79
2023/06/29 00:48:12;;;;;;;4.65;3.55;;;;;14.00;94304.00;;;;7397214;19;20505;-80
2023/06/29 00:50:48;;;;;;;4.82;3.10;;;;;14.00;94298.00;;;;7399714;19;20143;-79
2023/06/29 00:53:16;;;;;;;5.00;2.80;;;;;13.90;94301.00;;;;7399764;19;20228;-77
2023/06/29 00:55:50;;;;;;;4.80;2.95;;;;;13.90;94306.00;;;;7400350;19;20158;-75
2023/06/29 00:58:17;;;;;;;7.35;3.70;;;;;14.10;94304.00;;;;7398639;19;20501;-75
2023/06/29 01:00:59;;;;;;;5.13;2.92;;;;;14.00;94300.00;;;;7396600;19;20167;-75
2023/06/29 01:03:42;;;;;;;5.68;3.10;;;;;14.10;94305.00;;;;7389842;19;20624;-76
2023/06/29 01:06:22;;;;;;;3.95;2.90;;;;;14.00;94301.00;;;;7400137;19;20152;-75
2023/06/29 01:09:04;;;;;;;7.80;3.53;;;;;13.90;94299.00;;;;7400555;19;20619;-75
2023/06/29 01:11:40;;;;;;;4.30;2.70;;;;;13.90;94295.00;;;;7397842;19;20188;-76
2023/06/29 01:14:12;;;;;;;5.55;2.97;;;;;13.90;94289.00;;;;7399751;19;20141;-76
2023/06/29 01:16:47;;;;;;;5.85;2.90;;;;;13.80;94299.00;;;;7399057;19;20145;-75
2023/06/29 01:19:21;;;;;;;5.70;3.53;;;;;13.80;94292.00;;;;7398582;19;20219;-75
2023/06/29 01:22:03;;;;;;;5.75;3.10;;;;;13.80;94284.00;;;;7398734;19;20156;-76
2023/06/29 01:24:41;;;;;;;4.88;3.08;;;;;13.70;94279.00;;;;7400457;19;20133;-75
2023/06/29 01:27:16;;;;;;;4.10;2.97;;;;;13.70;94276.00;;;;7399944;19;20606;-75
2023/06/29 01:29:44;;;;;;;7.05;3.10;;;;;13.70;94279.00;;;;7400237;19;20158;-75
2023/06/29 01:32:18;;;;;;;7.18;3.28;;;;;13.60;94283.00;;;;7400515;19;20137;-75
2023/06/29 01:34:52;;;;;;;5.93;3.20;;;;;13.70;94269.00;;;;7398239;19;20144;-75
2023/06/29 01:37:29;;;;;;;4.53;3.05;;;;;13.80;94276.00;;;;7397554;19;20186;-76
2023/06/29 01:40:03;;;;;;;5.35;3.17;;;;;13.70;94271.00;;;;7398820;19;20563;-77
2023/06/29 01:42:40;;;;;;;5.18;3.08;;;;;13.70;94270.00;;;;7398583;19;20148;-76
2023/06/29 01:45:22;;;;;;;5.32;3.15;;;;;13.60;94261.00;;;;7395678;19;20156;-75
2023/06/29 01:47:57;;;;;;;6.82;3.70;;;;;13.80;94258.00;;;;7398951;19;20149;-75
2023/06/29 01:50:32;;;;;;;6.30;3.70;;;;;13.80;94257.00;;;;7399628;19;20485;-76
2023/06/29 01:53:00;;;;;;;4.82;3.60;;;;;13.80;94258.00;;;;7398076;19;20597;-75
2023/06/29 01:55:34;;;;;;;11.70;3.88;;;;;13.80;94249.00;;;;7397317;19;20585;-76
2023/06/29 01:58:10;;;;;;;6.28;3.40;;;;;13.80;94258.00;;;;7400023;19;20132;-76
2023/06/29 02:00:44;;;;;;;6.28;3.53;;;;;13.80;94250.00;;;;7395589;19;20139;-75
2023/06/29 02:03:26;;;;;;;5.53;3.70;;;;;13.80;94253.00;;;;7396281;19;20140;-75
2023/06/29 02:06:00;;;;;;;6.80;3.65;;;;;13.80;94248.00;;;;7395514;19;20497;-80
2023/06/29 02:08:27;;;;;;;8.68;3.45;;;;;13.80;94252.00;;;;7397034;19;20133;-79
2023/06/29 02:11:03;;;;;;;5.63;3.78;;;;;13.80;94256.00;;;;7397890;19;20526;-80
2023/06/29 02:13:31;;;;;;;9.45;3.38;;;;;13.80;94253.00;;;;7397836;19;20129;-79
2023/06/29 02:16:05;;;;;;;8.45;3.63;;;;;13.90;94251.00;;;;7397730;19;20141;-79
2023/06/29 02:18:41;;;;;;;5.97;3.72;;;;;14.00;94256.00;;;;7396565;19;20495;-80
2023/06/29 02:21:15;;;;;;;6.70;3.50;;;;;13.90;94250.00;;;;7396436;19;20145;-82
2023/06/29 02:23:49;;;;;;;5.35;3.40;;;;;13.90;94241.00;;;;7397215;19;20130;-80
2023/06/29 02:26:27;;;;;;;7.32;3.05;;;;;13.90;94246.00;;;;7397156;19;20649;-79
2023/06/29 02:28:55;;;;;;;6.03;3.40;;;;;13.80;94242.00;;;;7396581;19;20728;-80
2023/06/29 02:31:29;;;;;;;13.77;3.40;;;;;13.80;94246.00;;;;7397633;19;20144;-79
2023/06/29 02:34:04;;;;;;;4.03;3.10;;;;;13.70;94247.00;;;;7395654;19;20170;-79
2023/06/29 02:36:31;;;;;;;8.43;3.55;;;;;13.70;94240.00;;;;7394172;19;20171;-79
2023/06/29 02:39:07;;;;;;;7.75;2.95;;;;;13.70;94241.00;;;;7396764;19;20475;-79
2023/06/29 02:41:42;;;;;;;4.78;3.10;;;;;13.70;94244.00;;;;7396124;19;20174;-79
2023/06/29 02:44:10;;;;;;;6.65;2.90;;;;;13.70;94241.00;;;;7396811;19;20647;-79
2023/06/29 02:46:45;;;;;;;6.53;3.40;;;;;13.70;94236.00;;;;7396518;19;20170;-79
2023/06/29 02:49:15;;;;;;;7.40;3.17;;;;;13.80;94239.00;;;;7396186;19;20175;-79
2023/06/29 02:51:42;;;;;;;5.05;3.50;;;;;13.70;94234.00;;;;7395473;19;20125;-80
2023/06/29 02:54:17;;;;;;;5.05;3.28;;;;;13.70;94227.00;;;;7396435;19;20589;-79
2023/06/29 02:56:45;;;;;;;7.25;3.28;;;;;13.70;94232.00;;;;7395462;19;20137;-79
2023/06/29 02:59:21;;;;;;;5.97;3.28;;;;;13.70;94233.00;;;;7395220;19;20524;-79
2023/06/29 03:02:01;;;;;;;4.80;3.13;;;;;13.60;94235.00;;;;7393457;19;20646;-78
2023/06/29 03:04:29;;;;;;;4.93;3.67;;;;;13.60;94232.00;;;;7392448;19;20612;-80
2023/06/29 03:07:03;;;;;;;8.07;3.50;;;;;13.70;94235.00;;;;7394739;19;20159;-78
2023/06/29 03:09:38;;;;;;;4.53;3.50;;;;;13.60;94235.00;;;;7395039;19;20617;-78
2023/06/29 03:12:08;;;;;;;9.48;3.70;;;;;13.60;94229.00;;;;7395466;19;20193;-79
2023/06/29 03:14:42;;;;;;;4.90;3.17;;;;;13.50;94229.00;;;;7394871;19;20696;-78
2023/06/29 03:17:13;;;;;;;32.15;4.00;;;;;13.60;94226.00;;;;7395849;19;20634;-79
2023/06/29 03:19:42;;;;;;;26.40;4.15;;;;;13.60;94229.00;;;;7395650;19;20152;-78
2023/06/29 03:22:16;;;;;;;4.93;3.40;;;;;13.60;94224.00;;;;7394722;19;20670;-79
2023/06/29 03:24:44;;;;;;;5.25;3.72;;;;;13.60;94222.00;;;;7396875;19;20128;-79
2023/06/29 03:27:19;;;;;;;8.43;3.10;;;;;13.60;94223.00;;;;7395065;19;20148;-79
2023/06/29 03:29:53;;;;;;;5.57;3.03;;;;;13.80;94224.00;;;;7393885;19;20155;-79
2023/06/29 03:32:29;;;;;;;6.80;3.42;;;;;13.80;94227.00;;;;7395304;19;20200;-79
2023/06/29 03:35:05;;;;;;;5.20;3.72;;;;;13.80;94223.00;;;;7396741;19;20124;-80
2023/06/29 03:37:43;;;;;;;5.45;3.35;;;;;13.90;94214.00;;;;7393483;19;20152;-78
2023/06/29 03:40:17;;;;;;;5.13;3.42;;;;;13.90;94222.00;;;;7393870;19;20167;-78
2023/06/29 03:42:53;;;;;;;6.32;3.35;;;;;13.90;94223.00;;;;7394883;19;20249;-79
2023/06/29 03:45:27;;;;;;;7.93;3.85;;;;;14.00;94214.00;;;;7393131;19;20600;-79
2023/06/29 03:48:01;;;;;;;6.40;3.33;;;;;14.00;94209.00;;;;7394569;19;20176;-79
2023/06/29 03:50:38;;;;;;;5.65;3.00;;;;;14.00;94208.00;;;;7394724;19;20604;-79
2023/06/29 03:53:12;;;;;;;3.83;2.90;;;;;14.10;94205.00;;;;7393974;19;20632;-79
2023/06/29 03:55:48;;;;;;;5.82;3.30;;;;;14.10;94208.00;;;;7393454;19;20136;-79
2023/06/29 03:58:16;;;;;;;5.72;3.05;;;;;14.10;94207.00;;;;7394239;19;20608;-79
2023/06/29 04:01:03;;;;;;;5.68;3.38;;;;;14.10;94202.00;;;;7394088;19;20648;-79
2023/06/29 04:03:45;;;;;;;7.00;3.03;;;;;14.00;94213.00;;;;7395072;19;20590;-80
2023/06/29 04:06:20;;;;;;;7.40;3.15;;;;;13.90;94211.00;;;;7390389;19;20136;-80
2023/06/29 04:08:55;;;;;;;5.63;3.53;;;;;14.00;94216.00;;;;7393511;19;20170;-79
2023/06/29 04:11:29;;;;;;;9.13;3.97;;;;;14.10;94204.00;;;;7393170;19;20141;-79
2023/06/29 04:14:05;;;;;;;4.07;3.20;;;;;14.30;94210.00;;;;7394442;19;20155;-79
2023/06/29 04:16:33;;;;;;;6.45;3.70;;;;;14.40;94210.00;;;;7393587;19;20454;-80
2023/06/29 04:19:07;;;;;;;7.00;3.65;;;;;14.50;94209.00;;;;7393569;19;20145;-78
2023/06/29 04:21:35;;;;;;;7.65;3.72;;;;;14.60;94209.00;;;;7394159;19;20149;-79
2023/06/29 04:24:09;;;;;;;4.22;3.40;;;;;14.70;94200.00;;;;7401638;19;20133;-78
2023/06/29 04:26:38;;;;;;;8.00;3.33;;;;;14.70;94203.00;;;;7398842;19;20479;-78
2023/06/29 04:29:07;;;;;;;5.40;3.20;;;;;14.90;94194.00;;;;7402874;19;20139;-78
2023/06/29 04:31:41;;;;;;;5.55;3.20;;;;;15.00;94200.00;;;;7401538;19;20170;-78
2023/06/29 04:34:10;;;;;;;6.95;3.53;;;;;15.00;94195.00;;;;7400482;19;20216;-77
2023/06/29 04:36:46;;;;;;;5.20;3.22;;;;;15.10;94186.00;;;;7402224;19;20528;-77
2023/06/29 04:39:14;;;;;;;9.20;4.43;;;;;15.20;94192.00;;;;7401326;19;20249;-78
2023/06/29 04:41:48;;;;;;;6.53;3.63;;;;;15.40;94196.00;;;;7401353;19;20144;-77
2023/06/29 04:44:22;;;;;;;5.68;3.50;;;;;15.50;94190.00;;;;7401813;19;20149;-76
2023/06/29 04:47:00;;;;;;;5.07;3.38;;;;;15.70;94186.00;;;;7400173;19;20144;-78
2023/06/29 04:49:37;;;;;;;6.28;3.13;;;;;15.90;94192.00;;;;7400688;19;20200;-76
2023/06/29 04:52:12;;;;;;;4.75;2.78;;;;;16.00;94196.00;;;;7399897;19;20520;-76
2023/06/29 04:54:48;;;;;;;5.50;2.85;;;;;16.10;94192.00;;;;7401378;19;20132;-76
2023/06/29 04:57:24;;;;;;;4.97;3.20;;;;;16.30;94192.00;;;;7402384;19;20141;-76
2023/06/29 04:59:58;;;;;;;8.95;3.45;;;;;16.50;94199.00;;;;7399625;19;20152;-77
2023/06/29 05:02:39;;;;;;;3.22;2.85;;;;;16.60;94194.00;;;;7398191;19;20192;-78
2023/06/29 05:05:14;;;;;;;4.97;3.20;;;;;16.90;94197.00;;;;7396742;19;20163;-77
2023/06/29 05:07:42;;;;;;;3.65;2.72;;;;;17.10;94186.00;;;;7401257;19;20125;-77
2023/06/29 05:10:17;;;;;;;5.43;3.10;;;;;17.30;94201.00;;;;7400861;19;20128;-79
2023/06/29 05:12:44;;;;;;;5.28;2.83;;;;;17.40;94181.00;;;;7400380;19;20162;-77
2023/06/29 05:15:19;;;;;;;6.20;2.80;;;;;17.60;94186.00;;;;7398956;19;20142;-77
2023/06/29 05:17:46;;;;;;;5.60;2.60;;;;;17.80;94185.00;;;;7402119;19;20581;-77
2023/06/29 05:20:17;;;;;;;6.57;2.72;;;;;18.00;94183.00;;;;7400018;19;20613;-77
2023/06/29 05:22:51;;;;;;;6.00;3.05;;;;;18.10;94183.00;;;;7399092;19;20507;-78
2023/06/29 05:25:23;;;;;;;8.50;3.30;;;;;18.20;94170.00;;;;7400360;19;20137;-78
2023/06/29 05:27:59;;;;;;;3.53;2.90;;;;;18.40;94171.00;;;;7399591;19;20785;-78
2023/06/29 05:30:34;;;;;;;5.32;2.90;;;;;18.40;94173.00;;;;7398966;19;20137;-78
2023/06/29 05:33:08;;;;;;;6.63;3.28;;;;;18.60;94178.00;;;;7401570;19;20589;-77
2023/06/29 05:35:43;;;;;;;2.95;2.50;;;;;18.70;94170.00;;;;7397075;19;20644;-78
2023/06/29 05:38:17;;;;;;;6.45;2.80;;;;;18.80;94179.00;;;;7398729;19;20144;-79
2023/06/29 05:40:51;;;;;;;3.83;2.70;;;;;19.00;94162.00;;;;7398281;19;20135;-81
2023/06/29 05:43:29;;;;;;;5.25;2.60;;;;;19.20;94172.00;;;;7401344;19;20124;-80
2023/06/29 05:46:00;;;;;;;5.88;2.40;;;;;19.40;94165.00;;;;7396863;19;20174;-77
2023/06/29 05:48:34;;;;;;;4.38;2.50;;;;;19.70;94161.00;;;;7399426;19;20600;-79
2023/06/29 05:51:02;;;;;;;7.25;2.60;;;;;20.00;94156.00;;;;7399545;19;20141;-79
2023/06/29 05:53:36;;;;;;;3.03;2.60;;;;;20.30;94153.00;;;;7397757;19;20149;-78
2023/06/29 05:56:06;;;;;;;6.20;2.67;;;;;20.80;94144.00;;;;7398548;19;20215;-78
2023/06/29 05:58:42;;;;;;;3.95;2.55;;;;;21.10;94146.00;;;;7398499;19;20137;-76
2023/06/29 06:01:16;;;;;;;5.22;2.45;;;;;21.30;94146.00;;;;7397446;19;20172;-78
2023/06/29 06:03:57;;;;;;;5.85;2.42;;;;;21.40;94149.00;;;;7397163;19;20140;-76
2023/06/29 06:06:25;;;;;;;5.80;2.63;;;;;21.20;94162.00;;;;7394366;19;20158;-78
2023/06/29 06:09:00;;;;;;;5.38;2.35;;;;;21.10;94165.00;;;;7399687;19;20145;-78
2023/06/29 06:11:28;;;;;;;7.15;2.20;;;;;21.10;94166.00;;;;7397414;19;20133;-78
2023/06/29 06:14:02;;;;;;;4.03;2.35;;;;;21.30;94161.00;;;;7397964;19;20587;-76
2023/06/29 06:16:30;;;;;;;3.65;2.20;;;;;21.40;94167.00;;;;7397606;19;20170;-76
2023/06/29 06:19:05;;;;;;;2.40;2.20;;;;;21.20;94172.00;;;;7397513;19;20136;-78
2023/06/29 06:21:40;;;;;;;6.38;2.28;;;;;21.00;94177.00;;;;7397372;19;20132;-79
2023/06/29 06:24:08;;;;;;;6.40;2.55;;;;;21.00;94176.00;;;;7398071;19;20611;-76
2023/06/29 06:26:43;;;;;;;3.85;2.50;;;;;21.10;94167.00;;;;7395030;19;20613;-76
2023/06/29 06:29:11;;;;;;;4.47;2.38;;;;;21.40;94169.00;;;;7397568;19;20136;-79
2023/06/29 06:31:45;;;;;;;5.05;3.05;;;;;22.00;94154.00;;;;7398049;19;20137;-77
2023/06/29 06:34:20;;;;;;;2.83;2.25;;;;;22.60;94154.00;;;;7395598;19;20136;-77
2023/06/29 06:36:55;;;;;;;3.30;2.28;;;;;22.90;94152.00;;;;7397103;19;21162;-77
2023/06/29 06:39:23;;;;;;;5.47;2.42;;;;;23.60;94154.00;;;;7398001;19;20133;-78
2023/06/29 06:42:00;;;;;;;2.75;1.95;;;;;23.30;94150.00;;;;7396071;19;20608;-79
2023/06/29 06:44:28;;;;;;;2.40;2.20;;;;;23.70;94150.00;;;;7396608;19;20133;-79
2023/06/29 06:47:12;;;;;;;4.00;2.25;;;;;24.00;94140.00;;;;7395059;19;20160;-78
2023/06/29 06:49:48;;;;;;;3.15;2.17;;;;;24.20;94141.00;;;;7396064;19;20140;-77
2023/06/29 06:52:22;;;;;;;4.88;2.15;;;;;24.20;94145.00;;;;7396593;19;20215;-78
2023/06/29 06:54:51;;;;;;;5.78;2.10;;;;;24.20;94141.00;;;;7396398;19;20180;-77
2023/06/29 06:57:19;;;;;;;5.25;2.53;;;;;24.20;94130.00;;;;7397217;19;20196;-78
2023/06/29 06:59:54;;;;;;;7.28;2.50;;;;;24.20;94135.00;;;;7395793;19;20141;-79
2023/06/29 07:02:41;;;;;;;3.03;2.17;;;;;24.70;94134.00;;;;7394466;19;20187;-78
2023/06/29 07:05:17;;;;;;;3.90;2.40;;;;;25.30;94145.00;;;;7392881;19;20171;-79
2023/06/29 07:07:53;;;;;;;2.83;2.30;;;;;25.50;94142.00;;;;7394694;19;20497;-79
2023/06/29 07:10:34;;;;;;;4.13;2.42;;;;;25.40;94149.00;;;;7395845;19;20647;-78
2023/06/29 07:13:05;;;;;;;7.32;2.70;;;;;25.00;94143.00;;;;7398739;19;20589;-78
2023/06/29 07:15:40;;;;;;;4.03;2.17;;;;;24.50;94146.00;;;;7397366;19;20159;-78
2023/06/29 07:18:14;;;;;;;5.85;2.05;;;;;24.50;94158.00;;;;7395757;19;20148;-77
2023/06/29 07:20:49;;;;;;;3.08;2.45;;;;;24.30;94160.00;;;;7396245;19;20718;-76
2023/06/29 07:23:28;;;;;;;3.03;2.28;;;;;23.90;94158.00;;;;7396158;19;20216;-77
2023/06/29 07:25:59;;;;;;;4.32;2.38;;;;;23.90;94154.00;;;;7394235;19;20611;-77
2023/06/29 07:28:34;;;;;;;3.35;2.10;;;;;23.90;94147.00;;;;7396558;19;20144;-78
2023/06/29 07:31:08;;;;;;;4.15;2.15;;;;;24.20;94145.00;;;;7394788;19;20140;-80
2023/06/29 07:33:42;;;;;;;4.63;2.47;;;;;24.10;94154.00;;;;7393223;19;20570;-77
2023/06/29 07:36:10;;;;;;;4.30;2.10;;;;;23.80;94156.00;;;;7393631;19;20160;-78
2023/06/29 07:38:44;;;;;;;3.45;2.40;;;;;24.00;94158.00;;;;7391564;19;20136;-78
2023/06/29 07:41:12;;;;;;;3.95;2.28;;;;;23.50;94168.00;;;;7392522;19;20221;-77
2023/06/29 07:43:53;;;;;;;7.35;2.30;;;;;23.10;94167.00;;;;7395498;19;20240;-77
2023/06/29 07:46:27;;;;;;;3.28;2.72;;;;;22.60;94180.00;;;;7394735;19;20132;-77
2023/06/29 07:49:02;;;;;;;7.13;2.55;;;;;22.30;94164.00;;;;7395310;19;20152;-79
2023/06/29 07:51:36;;;;;;;3.55;2.30;;;;;22.10;94165.00;;;;7394119;19;20174;-79
2023/06/29 07:54:12;;;;;;;4.60;2.13;;;;;21.80;94181.00;;;;7395834;19;20592;-77
2023/06/29 07:56:41;;;;;;;3.28;2.22;;;;;21.60;94170.00;;;;7393706;19;20133;-79
2023/06/29 07:59:18;;;;;;;2.88;2.10;;;;;21.70;94164.00;;;;7402316;19;20204;-76
2023/06/29 08:01:53;;;;;;;5.00;2.33;;;;;21.90;94158.00;;;;7399932;19;20228;-78
2023/06/29 08:04:28;;;;;;;3.33;2.08;;;;;23.10;94143.00;;;;7402826;19;20154;-79
2023/06/29 08:06:59;;;;;;;6.93;2.80;;;;;24.00;94138.00;;;;7396078;19;20495;-77
2023/06/29 08:09:37;;;;;;;2.80;2.25;;;;;25.30;94124.00;;;;7402510;19;20633;-77
2023/06/29 08:12:05;;;;;;;6.32;2.42;;;;;25.80;94126.00;;;;7401836;19;20637;-77
2023/06/29 08:14:40;;;;;;;5.18;2.60;;;;;26.60;94124.00;;;;7400281;19;20144;-77
2023/06/29 08:17:13;;;;;;;3.00;2.28;;;;;27.20;94119.00;;;;7403100;19;20125;-77
2023/06/29 08:19:49;;;;;;;4.93;2.28;;;;;27.50;94117.00;;;;7401939;19;20144;-78
2023/06/29 08:22:23;;;;;;;5.65;2.10;;;;;27.70;94132.00;;;;7400428;19;20191;-78
2023/06/29 08:24:57;;;;;;;9.10;2.38;;;;;26.60;94136.00;;;;7402371;19;20147;-79
2023/06/29 08:27:32;;;;;;;3.95;2.50;;;;;26.10;94135.00;;;;7401334;19;20136;-77
2023/06/29 08:30:01;;;;;;;6.10;2.42;;;;;25.30;94130.00;;;;7400092;19;20136;-78
2023/06/29 08:32:35;;;;;;;5.15;2.50;;;;;25.50;94138.00;;;;7400248;19;20133;-76
2023/06/29 08:35:10;;;;;;;8.75;2.50;;;;;25.90;94138.00;;;;7401125;19;20145;-78
2023/06/29 08:37:45;;;;;;;3.67;2.40;;;;;25.70;94135.00;;;;7400963;19;20771;-78
2023/06/29 08:40:22;;;;;;;6.88;2.35;;;;;25.80;94135.00;;;;7400585;19;20135;-79
2023/06/29 08:42:56;;;;;;;7.05;2.47;;;;;26.20;94137.00;;;;7400762;19;20579;-78
2023/06/29 08:45:30;;;;;;;3.30;2.10;;;;;26.40;94130.00;;;;7400600;19;20581;-78
2023/06/29 08:48:00;;;;;;;4.45;2.15;;;;;26.60;94151.00;;;;7398138;19;20159;-77
2023/06/29 08:50:36;;;;;;;4.75;2.50;;;;;26.40;94128.00;;;;7400264;19;20494;-78
2023/06/29 08:53:04;;;;;;;3.42;2.50;;;;;26.30;94142.00;;;;7401098;19;20209;-79
2023/06/29 08:55:41;;;;;;;2.45;2.25;;;;;26.20;94134.00;;;;7399116;19;20165;-77
2023/06/29 08:58:15;;;;;;;3.40;2.33;;;;;26.40;94128.00;;;;7400048;19;20496;-77
2023/06/29 09:00:59;;;;;;;5.38;2.50;;;;;26.60;94132.00;;;;7399568;19;20157;-77
2023/06/29 09:03:35;;;;;;;3.80;2.17;;;;;26.80;94128.00;;;;7399723;19;20270;-77
2023/06/29 09:06:11;;;;;;;5.57;2.47;;;;;26.60;94133.00;;;;7399538;19;20158;-80
2023/06/29 09:08:39;;;;;;;2.88;2.42;;;;;26.50;94128.00;;;;7400141;19;20597;-80
2023/06/29 09:11:14;;;;;;;4.25;2.17;;;;;27.10;94127.00;;;;7397308;19;20617;-80
2023/06/29 09:13:42;;;;;;;5.47;2.33;;;;;26.60;94128.00;;;;7399257;19;20144;-79
2023/06/29 09:16:19;;;;;;;4.72;2.40;;;;;26.80;94116.00;;;;7399032;19;20136;-79
2023/06/29 09:18:54;;;;;;;5.80;3.40;;;;;27.20;94114.00;;;;7399315;19;20617;-77
2023/06/29 09:21:29;;;;;;;3.55;2.50;;;;;27.70;94112.00;;;;7400256;19;20135;-80
2023/06/29 09:24:04;;;;;;;2.75;2.42;;;;;28.30;94109.00;;;;7398729;19;20153;-76
2023/06/29 09:26:32;;;;;;;4.47;2.47;;;;;28.20;94111.00;;;;7399626;19;20613;-77
2023/06/29 09:29:07;;;;;;;4.75;2.30;;;;;28.30;94109.00;;;;7398326;19;20128;-76
2023/06/29 09:31:37;;;;;;;3.60;2.65;;;;;28.90;94107.00;;;;7398665;19;20155;-79
2023/06/29 09:34:19;;;;;;;6.22;2.38;;;;;29.30;94092.00;;;;7400320;19;20132;-77
2023/06/29 09:36:48;;;;;;;5.10;2.58;;;;;30.40;94096.00;;;;7398893;19;20637;-76
2023/06/29 09:39:24;;;;;;;6.40;2.45;;;;;30.80;94096.00;;;;7398066;19;20136;-76
2023/06/29 09:41:56;;;;;;;5.63;2.42;;;;;31.10;94095.00;;;;7399323;19;20136;-76
2023/06/29 09:44:31;;;;;;;9.70;2.90;;;;;30.60;94107.00;;;;7399003;19;20140;-77
2023/06/29 09:47:06;;;;;;;3.83;2.38;;;;;30.40;94111.00;;;;7397423;19;20152;-78
2023/06/29 09:49:50;;;;;;;3.78;2.50;;;;;30.50;94092.00;;;;7399893;19;20596;-77
2023/06/29 09:52:23;;;;;;;4.85;2.58;;;;;31.20;94095.00;;;;7399233;19;20148;-77
2023/06/29 09:54:57;;;;;;;4.43;2.28;;;;;30.90;94095.00;;;;7397432;19;20791;-75
2023/06/29 09:57:31;;;;;;;5.45;2.70;;;;;29.80;94111.00;;;;7396794;19;20152;-78
2023/06/29 10:00:11;;;;;;;5.43;2.72;;;;;30.00;94109.00;;;;7398207;19;20163;-79
2023/06/29 10:02:53;;;;;;;3.60;2.40;;;;;29.60;94092.00;;;;7395578;19;20197;-79
2023/06/29 10:05:31;;;;;;;3.78;2.28;;;;;30.20;94098.00;;;;7396377;19;20155;-77
2023/06/29 10:08:08;;;;;;;6.80;2.60;;;;;30.40;94113.00;;;;7397073;19;20136;-76
2023/06/29 10:10:42;;;;;;;3.80;2.60;;;;;30.70;94084.00;;;;7397566;19;20148;-76
2023/06/29 10:13:17;;;;;;;4.00;2.53;;;;;31.50;94099.00;;;;7397830;19;20143;-78
2023/06/29 10:15:53;;;;;;;4.15;2.65;;;;;31.70;94097.00;;;;7396662;19;20160;-77
2023/06/29 10:18:29;;;;;;;3.53;2.45;;;;;31.50;94107.00;;;;7395782;19;20513;-77
2023/06/29 10:21:03;;;;;;;3.45;2.80;;;;;29.10;94112.00;;;;7395521;19;20604;-79
2023/06/29 10:23:41;;;;;;;5.18;2.88;;;;;29.00;94115.00;;;;7397519;19;20158;-80
2023/06/29 10:26:15;;;;;;;4.97;3.00;;;;;29.30;94110.00;;;;7396676;19;20588;-76
2023/06/29 10:28:44;;;;;;;6.18;2.80;;;;;28.60;94115.00;;;;7396221;19;20129;-75
2023/06/29 10:31:19;;;;;;;4.57;2.33;;;;;27.70;94114.00;;;;7396171;19;20144;-76
2023/06/29 10:33:48;;;;;;;4.03;2.70;;;;;28.20;94095.00;;;;7395608;19;20145;-77
2023/06/29 10:36:17;;;;;;;5.00;2.75;;;;;28.10;94115.00;;;;7397438;19;20206;-77
2023/06/29 10:38:51;;;;;;;5.57;2.75;;;;;28.00;94113.00;;;;7396410;19;20620;-75
2023/06/29 10:41:28;;;;;;;3.60;2.50;;;;;28.40;94111.00;;;;7396286;19;20593;-76
2023/06/29 10:44:06;;;;;;;3.25;2.60;;;;;28.20;94104.00;;;;7398020;19;20140;-76
2023/06/29 10:46:48;;;;;;;5.07;2.97;;;;;28.50;94104.00;;;;7396148;19;20148;-77
2023/06/29 10:49:25;;;;;;;5.10;2.75;;;;;28.00;94103.00;;;;7395388;19;20157;-77
2023/06/29 10:52:04;;;;;;;4.70;2.53;;;;;28.20;94095.00;;;;7395773;19;20158;-78
2023/06/29 10:54:38;;;;;;;6.38;2.58;;;;;27.80;94099.00;;;;7395039;19;20601;-77
2023/06/29 10:57:11;;;;;;;3.47;2.42;;;;;27.90;94098.00;;;;7395757;19;20149;-75
2023/06/29 10:59:46;;;;;;;3.80;2.83;;;;;28.10;94096.00;;;;7396635;19;20618;-75
2023/06/29 11:02:27;;;;;;;3.85;2.40;;;;;28.40;94098.00;;;;7393697;19;20625;-76
2023/06/29 11:04:54;;;;;;;4.03;2.80;;;;;28.30;94099.00;;;;7396194;19;20150;-78
2023/06/29 11:07:32;;;;;;;3.90;2.40;;;;;28.00;94105.00;;;;7393361;19;20144;-74
2023/06/29 11:10:07;;;;;;;4.63;2.50;;;;;27.30;94115.00;;;;7396776;19;20140;-77
2023/06/29 11:12:42;;;;;;;3.58;2.33;;;;;26.90;94109.00;;;;7397950;19;20132;-75
2023/06/29 11:15:18;;;;;;;3.97;2.80;;;;;26.50;94116.00;;;;7394786;19;20159;-75
2023/06/29 11:17:56;;;;;;;5.47;2.55;;;;;25.60;94110.00;;;;7394270;19;20601;-76
2023/06/29 11:20:30;;;;;;;4.93;2.70;;;;;25.20;94112.00;;;;7396775;19;20136;-77
2023/06/29 11:23:04;;;;;;;5.25;3.05;;;;;24.90;94112.00;;;;7395328;19;20157;-75
2023/06/29 11:25:31;;;;;;;8.38;2.85;;;;;25.00;94104.00;;;;7396365;19;20141;-75
2023/06/29 11:28:07;;;;;;;4.93;2.58;;;;;25.10;94115.00;;;;7394386;19;20466;-75
2023/06/29 11:30:40;;;;;;;6.88;2.83;;;;;24.90;94114.00;;;;7395541;19;20145;-73
2023/06/29 11:33:11;;;;;;;6.57;3.17;;;;;24.80;94111.00;;;;7393459;19;20153;-74
2023/06/29 11:36:01;;;;;;;10.80;3.15;;;;;24.70;94108.00;;;;7393817;19;20170;-74
2023/06/29 11:38:30;;;;;;;3.25;2.60;;;;;24.10;94109.00;;;;7395328;19;20133;-74
2023/06/29 11:41:05;;;;;;;6.72;2.88;;;;;25.10;94106.00;;;;7394737;19;20125;-73
2023/06/29 11:43:33;;;;;;;3.60;2.80;;;;;25.70;94093.00;;;;7395265;19;20133;-75
2023/06/29 11:46:10;;;;;;;5.68;2.63;;;;;25.90;94092.00;;;;7395180;19;20271;-73
2023/06/29 11:48:38;;;;;;;8.23;2.97;;;;;26.00;94095.00;;;;7392261;19;20818;-73
2023/06/29 11:51:12;;;;;;;4.25;2.60;;;;;26.70;94099.00;;;;7393936;19;20600;-73
2023/06/29 11:53:40;;;;;;;6.57;2.80;;;;;26.80;94094.00;;;;7395231;19;20133;-75
2023/06/29 11:56:24;;;;;;;6.03;3.10;;;;;25.40;94094.00;;;;7395711;19;20133;-73
2023/06/29 11:58:52;;;;;;;6.90;2.90;;;;;25.30;94100.00;;;;7394051;19;20128;-76
2023/06/29 12:01:33;;;;;;;5.65;3.13;;;;;24.70;94098.00;;;;7393811;19;20648;-74
2023/06/29 12:04:09;;;;;;;4.90;2.70;;;;;24.00;94100.00;;;;7394821;19;20144;-77
2023/06/29 12:06:53;;;;;;;4.75;2.88;;;;;25.80;94083.00;;;;7393610;19;20144;-74
2023/06/29 12:09:31;;;;;;;5.95;2.67;;;;;26.20;94080.00;;;;7387428;19;20140;-75
2023/06/29 12:12:08;;;;;;;4.63;2.78;;;;;26.60;94091.00;;;;7385831;19;20159;-75
2023/06/29 12:14:36;;;;;;;6.30;2.80;;;;;26.40;94092.00;;;;7393823;19;20622;-75
2023/06/29 12:17:20;;;;;;;4.07;3.05;;;;;27.00;94084.00;;;;7390340;19;20148;-74
2023/06/29 12:19:54;;;;;;;6.30;3.13;;;;;26.30;94089.00;;;;7386877;19;20170;-73
2023/06/29 12:22:38;;;;;;;6.07;3.03;;;;;25.90;94083.00;;;;7393341;19;20125;-75
2023/06/29 12:25:09;;;;;;;10.85;3.08;;;;;25.10;94091.00;;;;7388725;19;20137;-77
2023/06/29 12:27:45;;;;;;;6.35;3.35;;;;;25.00;94088.00;;;;7391010;19;20633;-75
2023/06/29 12:30:21;;;;;;;5.07;3.20;;;;;25.80;94077.00;;;;7392766;19;20167;-74
2023/06/29 12:32:55;;;;;;;6.38;2.90;;;;;25.20;94067.00;;;;7390966;19;20145;-75
2023/06/29 12:35:29;;;;;;;6.93;3.22;;;;;25.90;94076.00;;;;7391460;19;20184;-75
2023/06/29 12:38:04;;;;;;;5.68;3.10;;;;;26.20;94083.00;;;;7393248;19;20239;-77
2023/06/29 12:40:39;;;;;;;4.90;2.92;;;;;26.30;94080.00;;;;7393805;19;20140;-77
2023/06/29 12:43:13;;;;;;;4.78;2.90;;;;;25.30;94073.00;;;;7393209;19;20121;-80
2023/06/29 12:45:40;;;;;;;5.57;3.10;;;;;24.90;94075.00;;;;7399877;19;20153;-78
2023/06/29 12:48:15;;;;;;;5.78;3.33;;;;;24.70;94075.00;;;;7400069;19;20491;-76
2023/06/29 12:50:43;;;;;;;4.32;3.30;;;;;25.90;94048.00;;;;7401258;19;20133;-76
2023/06/29 12:53:18;;;;;;;5.18;3.35;;;;;26.80;94044.00;;;;7398699;19;20142;-79